sensor_id;sensor_type;location;lat;lon;timestamp;P1;durP1;ratioP1;P2;durP2;ratioP2
53525;SDS011;40551;50.478;19.378;2023-06-10T00:01:41;13.70;;;12.40;;
53525;SDS011;40551;50.478;19.378;2023-06-10T00:04:16;14.10;;;12.30;;
53525;SDS011;40551;50.478;19.378;2023-06-10T00:06:48;15.50;;;13.80;;
53525;SDS011;40551;50.478;19.378;2023-06-10T00:09:19;16.10;;;13.90;;
53525;SDS011;40551;50.478;19.378;2023-06-10T00:11:51;16.20;;;14.80;;
53525;SDS011;40551;50.478;19.378;2023-06-10T00:14:23;17.60;;;14.00;;
53525;SDS011;40551;50.478;19.378;2023-06-10T00:16:54;16.00;;;14.50;;
53525;SDS011;40551;50.478;19.378;2023-06-10T00:19:26;17.40;;;15.60;;
53525;SDS011;40551;50.478;19.378;2023-06-10T00:21:58;18.00;;;16.30;;
53525;SDS011;40551;50.478;19.378;2023-06-10T00:24:31;16.70;;;15.10;;
53525;SDS011;40551;50.478;19.378;2023-06-10T00:27:04;17.00;;;15.20;;
53525;SDS011;40551;50.478;19.378;2023-06-10T00:29:38;18.20;;;16.30;;
53525;SDS011;40551;50.478;19.378;2023-06-10T00:32:10;17.50;;;15.00;;
53525;SDS011;40551;50.478;19.378;2023-06-10T00:34:42;19.00;;;17.00;;
53525;SDS011;40551;50.478;19.378;2023-06-10T00:37:13;19.40;;;16.90;;
53525;SDS011;40551;50.478;19.378;2023-06-10T00:39:45;17.30;;;15.70;;
53525;SDS011;40551;50.478;19.378;2023-06-10T00:42:16;19.70;;;16.80;;
53525;SDS011;40551;50.478;19.378;2023-06-10T00:44:48;19.40;;;17.50;;
53525;SDS011;40551;50.478;19.378;2023-06-10T00:47:19;19.50;;;17.40;;
53525;SDS011;40551;50.478;19.378;2023-06-10T00:49:51;18.70;;;17.00;;
53525;SDS011;40551;50.478;19.378;2023-06-10T00:52:25;18.40;;;16.70;;
53525;SDS011;40551;50.478;19.378;2023-06-10T00:54:59;19.60;;;17.50;;
53525;SDS011;40551;50.478;19.378;2023-06-10T00:57:30;18.40;;;16.70;;
53525;SDS011;40551;50.478;19.378;2023-06-10T01:00:03;17.80;;;16.10;;
53525;SDS011;40551;50.478;19.378;2023-06-10T01:02:39;19.10;;;17.10;;
53525;SDS011;40551;50.478;19.378;2023-06-10T01:05:10;18.40;;;16.60;;
53525;SDS011;40551;50.478;19.378;2023-06-10T01:07:45;17.90;;;16.10;;
53525;SDS011;40551;50.478;19.378;2023-06-10T01:10:27;17.30;;;15.70;;
53525;SDS011;40551;50.478;19.378;2023-06-10T01:13:03;18.20;;;16.30;;
53525;SDS011;40551;50.478;19.378;2023-06-10T01:15:40;18.00;;;15.60;;
53525;SDS011;40551;50.478;19.378;2023-06-10T01:18:14;16.40;;;14.80;;
53525;SDS011;40551;50.478;19.378;2023-06-10T01:20:46;18.10;;;16.30;;
53525;SDS011;40551;50.478;19.378;2023-06-10T01:23:19;18.80;;;17.00;;
53525;SDS011;40551;50.478;19.378;2023-06-10T01:25:53;18.70;;;16.90;;
53525;SDS011;40551;50.478;19.378;2023-06-10T01:28:31;18.30;;;16.40;;
53525;SDS011;40551;50.478;19.378;2023-06-10T01:31:09;19.50;;;17.40;;
53525;SDS011;40551;50.478;19.378;2023-06-10T01:33:47;19.40;;;17.50;;
53525;SDS011;40551;50.478;19.378;2023-06-10T01:36:24;19.40;;;17.50;;
53525;SDS011;40551;50.478;19.378;2023-06-10T01:38:56;19.00;;;17.30;;
53525;SDS011;40551;50.478;19.378;2023-06-10T01:41:29;19.70;;;17.90;;
53525;SDS011;40551;50.478;19.378;2023-06-10T01:44:02;25.60;;;17.90;;
53525;SDS011;40551;50.478;19.378;2023-06-10T01:46:34;20.00;;;18.10;;
53525;SDS011;40551;50.478;19.378;2023-06-10T01:49:05;18.70;;;16.70;;
53525;SDS011;40551;50.478;19.378;2023-06-10T01:51:37;20.40;;;17.40;;
53525;SDS011;40551;50.478;19.378;2023-06-10T01:54:09;19.70;;;17.70;;
53525;SDS011;40551;50.478;19.378;2023-06-10T01:56:40;20.70;;;18.90;;
53525;SDS011;40551;50.478;19.378;2023-06-10T01:59:12;21.70;;;19.60;;
53525;SDS011;40551;50.478;19.378;2023-06-10T02:01:44;19.50;;;17.60;;
53525;SDS011;40551;50.478;19.378;2023-06-10T02:04:16;19.10;;;17.20;;
53525;SDS011;40551;50.478;19.378;2023-06-10T02:06:47;17.60;;;15.90;;
53525;SDS011;40551;50.478;19.378;2023-06-10T02:09:19;17.80;;;15.90;;
53525;SDS011;40551;50.478;19.378;2023-06-10T02:11:51;17.60;;;15.80;;
53525;SDS011;40551;50.478;19.378;2023-06-10T02:14:23;18.30;;;16.50;;
53525;SDS011;40551;50.478;19.378;2023-06-10T02:16:54;18.00;;;15.90;;
53525;SDS011;40551;50.478;19.378;2023-06-10T02:19:26;16.90;;;15.10;;
53525;SDS011;40551;50.478;19.378;2023-06-10T02:21:58;17.60;;;15.70;;
53525;SDS011;40551;50.478;19.378;2023-06-10T02:24:30;17.20;;;15.40;;
53525;SDS011;40551;50.478;19.378;2023-06-10T02:27:01;18.30;;;16.40;;
53525;SDS011;40551;50.478;19.378;2023-06-10T02:29:35;17.70;;;16.10;;
53525;SDS011;40551;50.478;19.378;2023-06-10T02:32:08;17.90;;;16.10;;
53525;SDS011;40551;50.478;19.378;2023-06-10T02:34:39;18.20;;;16.20;;
53525;SDS011;40551;50.478;19.378;2023-06-10T02:37:12;18.10;;;14.80;;
53525;SDS011;40551;50.478;19.378;2023-06-10T02:39:44;17.10;;;13.50;;
53525;SDS011;40551;50.478;19.378;2023-06-10T02:42:16;19.10;;;14.70;;
53525;SDS011;40551;50.478;19.378;2023-06-10T02:44:48;15.70;;;14.10;;
53525;SDS011;40551;50.478;19.378;2023-06-10T02:47:29;15.80;;;14.10;;
53525;SDS011;40551;50.478;19.378;2023-06-10T02:50:01;18.00;;;13.30;;
53525;SDS011;40551;50.478;19.378;2023-06-10T02:52:36;16.70;;;13.20;;
53525;SDS011;40551;50.478;19.378;2023-06-10T02:55:09;15.90;;;13.80;;
53525;SDS011;40551;50.478;19.378;2023-06-10T02:57:42;15.50;;;12.90;;
53525;SDS011;40551;50.478;19.378;2023-06-10T03:00:16;15.40;;;13.70;;
53525;SDS011;40551;50.478;19.378;2023-06-10T03:02:49;14.50;;;12.40;;
53525;SDS011;40551;50.478;19.378;2023-06-10T03:05:23;17.50;;;13.40;;
53525;SDS011;40551;50.478;19.378;2023-06-10T03:07:56;21.50;;;14.20;;
53525;SDS011;40551;50.478;19.378;2023-06-10T03:10:27;15.30;;;13.70;;
53525;SDS011;40551;50.478;19.378;2023-06-10T03:13:01;14.70;;;13.20;;
53525;SDS011;40551;50.478;19.378;2023-06-10T03:15:33;16.70;;;14.30;;
53525;SDS011;40551;50.478;19.378;2023-06-10T03:18:06;16.30;;;14.10;;
53525;SDS011;40551;50.478;19.378;2023-06-10T03:20:38;16.10;;;13.90;;
53525;SDS011;40551;50.478;19.378;2023-06-10T03:23:10;15.40;;;13.70;;
53525;SDS011;40551;50.478;19.378;2023-06-10T03:25:42;17.00;;;14.80;;
53525;SDS011;40551;50.478;19.378;2023-06-10T03:28:16;17.40;;;14.00;;
53525;SDS011;40551;50.478;19.378;2023-06-10T03:30:48;15.70;;;14.10;;
53525;SDS011;40551;50.478;19.378;2023-06-10T03:33:21;15.40;;;13.90;;
53525;SDS011;40551;50.478;19.378;2023-06-10T03:35:53;15.90;;;14.40;;
53525;SDS011;40551;50.478;19.378;2023-06-10T03:38:25;17.70;;;15.10;;
53525;SDS011;40551;50.478;19.378;2023-06-10T03:40:56;15.10;;;13.50;;
53525;SDS011;40551;50.478;19.378;2023-06-10T03:43:28;15.20;;;13.60;;
53525;SDS011;40551;50.478;19.378;2023-06-10T03:46:00;17.40;;;14.40;;
53525;SDS011;40551;50.478;19.378;2023-06-10T03:48:33;16.10;;;14.40;;
53525;SDS011;40551;50.478;19.378;2023-06-10T03:51:06;16.00;;;14.10;;
53525;SDS011;40551;50.478;19.378;2023-06-10T03:53:37;17.30;;;13.90;;
53525;SDS011;40551;50.478;19.378;2023-06-10T03:56:09;16.20;;;13.80;;
53525;SDS011;40551;50.478;19.378;2023-06-10T03:58:40;15.60;;;14.00;;
53525;SDS011;40551;50.478;19.378;2023-06-10T04:01:16;17.00;;;14.10;;
53525;SDS011;40551;50.478;19.378;2023-06-10T04:03:50;15.10;;;13.50;;
53525;SDS011;40551;50.478;19.378;2023-06-10T04:06:22;15.00;;;13.50;;
53525;SDS011;40551;50.478;19.378;2023-06-10T04:08:55;15.30;;;12.90;;
53525;SDS011;40551;50.478;19.378;2023-06-10T04:11:28;15.70;;;13.40;;
53525;SDS011;40551;50.478;19.378;2023-06-10T04:14:00;14.30;;;12.80;;
53525;SDS011;40551;50.478;19.378;2023-06-10T04:16:32;15.20;;;13.30;;
53525;SDS011;40551;50.478;19.378;2023-06-10T04:19:04;18.00;;;12.60;;
53525;SDS011;40551;50.478;19.378;2023-06-10T04:21:36;14.40;;;12.90;;
53525;SDS011;40551;50.478;19.378;2023-06-10T04:24:08;13.30;;;12.00;;
53525;SDS011;40551;50.478;19.378;2023-06-10T04:26:40;13.10;;;11.60;;
53525;SDS011;40551;50.478;19.378;2023-06-10T04:29:11;12.60;;;10.70;;
53525;SDS011;40551;50.478;19.378;2023-06-10T04:31:44;13.30;;;11.40;;
53525;SDS011;40551;50.478;19.378;2023-06-10T04:34:15;16.00;;;11.80;;
53525;SDS011;40551;50.478;19.378;2023-06-10T04:36:47;14.90;;;11.00;;
53525;SDS011;40551;50.478;19.378;2023-06-10T04:39:20;15.10;;;11.30;;
53525;SDS011;40551;50.478;19.378;2023-06-10T04:41:52;13.60;;;10.40;;
53525;SDS011;40551;50.478;19.378;2023-06-10T04:44:23;11.80;;;10.50;;
53525;SDS011;40551;50.478;19.378;2023-06-10T04:46:55;11.60;;;10.40;;
53525;SDS011;40551;50.478;19.378;2023-06-10T04:49:27;12.50;;;11.20;;
53525;SDS011;40551;50.478;19.378;2023-06-10T04:51:58;12.40;;;11.20;;
53525;SDS011;40551;50.478;19.378;2023-06-10T04:54:30;13.20;;;11.70;;
53525;SDS011;40551;50.478;19.378;2023-06-10T04:57:01;12.10;;;10.90;;
53525;SDS011;40551;50.478;19.378;2023-06-10T04:59:36;16.00;;;11.70;;
53525;SDS011;40551;50.478;19.378;2023-06-10T05:02:08;13.00;;;11.00;;
53525;SDS011;40551;50.478;19.378;2023-06-10T05:04:39;12.00;;;10.80;;
53525;SDS011;40551;50.478;19.378;2023-06-10T05:07:11;14.90;;;10.90;;
53525;SDS011;40551;50.478;19.378;2023-06-10T05:09:43;12.80;;;10.30;;
53525;SDS011;40551;50.478;19.378;2023-06-10T05:12:14;11.70;;;10.40;;
53525;SDS011;40551;50.478;19.378;2023-06-10T05:14:46;11.20;;;9.40;;
53525;SDS011;40551;50.478;19.378;2023-06-10T05:17:17;12.90;;;10.70;;
53525;SDS011;40551;50.478;19.378;2023-06-10T05:19:49;11.60;;;9.70;;
53525;SDS011;40551;50.478;19.378;2023-06-10T05:22:21;10.40;;;9.30;;
53525;SDS011;40551;50.478;19.378;2023-06-10T05:24:53;11.00;;;9.80;;
53525;SDS011;40551;50.478;19.378;2023-06-10T05:27:25;13.10;;;10.30;;
53525;SDS011;40551;50.478;19.378;2023-06-10T05:29:57;11.40;;;9.50;;
53525;SDS011;40551;50.478;19.378;2023-06-10T05:32:28;15.90;;;10.30;;
53525;SDS011;40551;50.478;19.378;2023-06-10T05:35:00;15.50;;;10.60;;
53525;SDS011;40551;50.478;19.378;2023-06-10T05:37:34;11.40;;;9.20;;
53525;SDS011;40551;50.478;19.378;2023-06-10T05:40:07;10.10;;;8.50;;
53525;SDS011;40551;50.478;19.378;2023-06-10T05:42:40;14.00;;;9.80;;
53525;SDS011;40551;50.478;19.378;2023-06-10T05:45:12;9.60;;;8.30;;
53525;SDS011;40551;50.478;19.378;2023-06-10T05:47:43;12.50;;;8.80;;
53525;SDS011;40551;50.478;19.378;2023-06-10T05:50:15;13.30;;;8.80;;
53525;SDS011;40551;50.478;19.378;2023-06-10T05:52:46;11.20;;;9.30;;
53525;SDS011;40551;50.478;19.378;2023-06-10T05:55:18;10.40;;;8.90;;
53525;SDS011;40551;50.478;19.378;2023-06-10T05:57:59;11.40;;;9.00;;
53525;SDS011;40551;50.478;19.378;2023-06-10T06:00:30;10.70;;;8.50;;
53525;SDS011;40551;50.478;19.378;2023-06-10T06:03:07;9.60;;;8.30;;
53525;SDS011;40551;50.478;19.378;2023-06-10T06:05:39;11.10;;;8.40;;
53525;SDS011;40551;50.478;19.378;2023-06-10T06:08:11;9.60;;;8.60;;
53525;SDS011;40551;50.478;19.378;2023-06-10T06:10:46;12.70;;;8.90;;
53525;SDS011;40551;50.478;19.378;2023-06-10T06:13:17;10.80;;;9.70;;
53525;SDS011;40551;50.478;19.378;2023-06-10T06:15:49;11.80;;;8.40;;
53525;SDS011;40551;50.478;19.378;2023-06-10T06:18:20;11.30;;;9.20;;
53525;SDS011;40551;50.478;19.378;2023-06-10T06:20:52;11.20;;;8.90;;
53525;SDS011;40551;50.478;19.378;2023-06-10T06:23:23;11.40;;;9.20;;
53525;SDS011;40551;50.478;19.378;2023-06-10T06:25:55;11.70;;;9.50;;
53525;SDS011;40551;50.478;19.378;2023-06-10T06:28:27;13.30;;;9.30;;
53525;SDS011;40551;50.478;19.378;2023-06-10T06:30:59;13.70;;;9.50;;
53525;SDS011;40551;50.478;19.378;2023-06-10T06:33:31;11.00;;;9.40;;
53525;SDS011;40551;50.478;19.378;2023-06-10T06:36:03;12.10;;;9.90;;
53525;SDS011;40551;50.478;19.378;2023-06-10T06:38:35;11.20;;;9.10;;
53525;SDS011;40551;50.478;19.378;2023-06-10T06:41:06;14.00;;;11.30;;
53525;SDS011;40551;50.478;19.378;2023-06-10T06:43:38;12.90;;;9.40;;
53525;SDS011;40551;50.478;19.378;2023-06-10T06:46:17;14.80;;;9.60;;
53525;SDS011;40551;50.478;19.378;2023-06-10T06:48:50;9.60;;;7.80;;
53525;SDS011;40551;50.478;19.378;2023-06-10T06:51:21;10.10;;;7.90;;
53525;SDS011;40551;50.478;19.378;2023-06-10T06:53:53;9.70;;;7.50;;
53525;SDS011;40551;50.478;19.378;2023-06-10T06:56:27;9.80;;;7.50;;
53525;SDS011;40551;50.478;19.378;2023-06-10T06:58:59;10.00;;;7.10;;
53525;SDS011;40551;50.478;19.378;2023-06-10T07:01:32;10.20;;;7.90;;
53525;SDS011;40551;50.478;19.378;2023-06-10T07:04:04;11.10;;;7.50;;
53525;SDS011;40551;50.478;19.378;2023-06-10T07:06:36;8.70;;;7.20;;
53525;SDS011;40551;50.478;19.378;2023-06-10T07:09:08;9.60;;;7.40;;
53525;SDS011;40551;50.478;19.378;2023-06-10T07:11:39;9.20;;;7.10;;
53525;SDS011;40551;50.478;19.378;2023-06-10T07:14:11;10.00;;;7.50;;
53525;SDS011;40551;50.478;19.378;2023-06-10T07:16:42;8.20;;;6.60;;
53525;SDS011;40551;50.478;19.378;2023-06-10T07:19:15;11.50;;;7.20;;
53525;SDS011;40551;50.478;19.378;2023-06-10T07:21:46;14.50;;;7.60;;
53525;SDS011;40551;50.478;19.378;2023-06-10T07:24:18;9.10;;;6.80;;
53525;SDS011;40551;50.478;19.378;2023-06-10T07:26:50;11.00;;;7.40;;
53525;SDS011;40551;50.478;19.378;2023-06-10T07:29:21;9.70;;;6.80;;
53525;SDS011;40551;50.478;19.378;2023-06-10T07:31:53;9.50;;;7.10;;
53525;SDS011;40551;50.478;19.378;2023-06-10T07:34:24;9.40;;;6.80;;
53525;SDS011;40551;50.478;19.378;2023-06-10T07:36:56;9.40;;;6.70;;
53525;SDS011;40551;50.478;19.378;2023-06-10T07:39:28;8.60;;;6.10;;
53525;SDS011;40551;50.478;19.378;2023-06-10T07:41:59;9.10;;;6.70;;
53525;SDS011;40551;50.478;19.378;2023-06-10T07:44:31;7.70;;;5.90;;
53525;SDS011;40551;50.478;19.378;2023-06-10T07:47:02;8.40;;;6.50;;
53525;SDS011;40551;50.478;19.378;2023-06-10T07:49:35;11.40;;;6.70;;
53525;SDS011;40551;50.478;19.378;2023-06-10T07:52:08;8.40;;;6.70;;
53525;SDS011;40551;50.478;19.378;2023-06-10T07:54:39;9.50;;;6.60;;
53525;SDS011;40551;50.478;19.378;2023-06-10T07:57:11;15.00;;;6.50;;
53525;SDS011;40551;50.478;19.378;2023-06-10T07:59:42;9.80;;;7.10;;
53525;SDS011;40551;50.478;19.378;2023-06-10T08:02:14;8.20;;;6.00;;
53525;SDS011;40551;50.478;19.378;2023-06-10T08:04:45;9.30;;;6.40;;
53525;SDS011;40551;50.478;19.378;2023-06-10T08:07:17;8.90;;;7.10;;
53525;SDS011;40551;50.478;19.378;2023-06-10T08:09:49;9.60;;;7.90;;
53525;SDS011;40551;50.478;19.378;2023-06-10T08:12:20;10.00;;;7.50;;
53525;SDS011;40551;50.478;19.378;2023-06-10T08:14:52;11.90;;;8.70;;
53525;SDS011;40551;50.478;19.378;2023-06-10T08:17:24;13.50;;;8.90;;
53525;SDS011;40551;50.478;19.378;2023-06-10T08:19:56;13.90;;;8.90;;
53525;SDS011;40551;50.478;19.378;2023-06-10T08:22:27;10.10;;;7.60;;
53525;SDS011;40551;50.478;19.378;2023-06-10T08:24:59;12.00;;;7.90;;
53525;SDS011;40551;50.478;19.378;2023-06-10T08:27:30;9.20;;;6.90;;
53525;SDS011;40551;50.478;19.378;2023-06-10T08:30:02;11.30;;;6.20;;
53525;SDS011;40551;50.478;19.378;2023-06-10T08:32:35;9.70;;;6.20;;
53525;SDS011;40551;50.478;19.378;2023-06-10T08:35:07;7.50;;;5.70;;
53525;SDS011;40551;50.478;19.378;2023-06-10T08:37:39;8.50;;;5.40;;
53525;SDS011;40551;50.478;19.378;2023-06-10T08:40:12;9.10;;;5.60;;
53525;SDS011;40551;50.478;19.378;2023-06-10T08:42:45;7.90;;;6.10;;
53525;SDS011;40551;50.478;19.378;2023-06-10T08:45:23;10.50;;;7.00;;
53525;SDS011;40551;50.478;19.378;2023-06-10T08:47:58;11.90;;;7.40;;
53525;SDS011;40551;50.478;19.378;2023-06-10T08:50:31;8.20;;;5.50;;
53525;SDS011;40551;50.478;19.378;2023-06-10T08:53:06;7.80;;;5.80;;
53525;SDS011;40551;50.478;19.378;2023-06-10T08:55:42;9.90;;;6.10;;
53525;SDS011;40551;50.478;19.378;2023-06-10T08:58:16;7.80;;;5.80;;
53525;SDS011;40551;50.478;19.378;2023-06-10T09:00:47;8.50;;;5.80;;
53525;SDS011;40551;50.478;19.378;2023-06-10T09:03:19;9.80;;;5.80;;
53525;SDS011;40551;50.478;19.378;2023-06-10T09:05:53;10.60;;;5.70;;
53525;SDS011;40551;50.478;19.378;2023-06-10T09:08:26;9.20;;;5.60;;
53525;SDS011;40551;50.478;19.378;2023-06-10T09:10:58;10.30;;;5.60;;
53525;SDS011;40551;50.478;19.378;2023-06-10T09:13:30;9.90;;;6.30;;
53525;SDS011;40551;50.478;19.378;2023-06-10T09:16:01;8.50;;;5.50;;
53525;SDS011;40551;50.478;19.378;2023-06-10T09:18:34;9.30;;;6.00;;
53525;SDS011;40551;50.478;19.378;2023-06-10T09:21:06;7.40;;;5.40;;
53525;SDS011;40551;50.478;19.378;2023-06-10T09:23:37;8.50;;;5.30;;
53525;SDS011;40551;50.478;19.378;2023-06-10T09:26:09;7.40;;;5.10;;
53525;SDS011;40551;50.478;19.378;2023-06-10T09:28:42;9.50;;;5.80;;
53525;SDS011;40551;50.478;19.378;2023-06-10T09:31:14;9.00;;;5.30;;
53525;SDS011;40551;50.478;19.378;2023-06-10T09:33:47;9.80;;;5.50;;
53525;SDS011;40551;50.478;19.378;2023-06-10T09:36:22;9.10;;;5.50;;
53525;SDS011;40551;50.478;19.378;2023-06-10T09:38:56;8.50;;;5.50;;
53525;SDS011;40551;50.478;19.378;2023-06-10T09:41:32;9.10;;;5.20;;
53525;SDS011;40551;50.478;19.378;2023-06-10T09:44:05;8.30;;;5.80;;
53525;SDS011;40551;50.478;19.378;2023-06-10T09:46:43;8.40;;;5.40;;
53525;SDS011;40551;50.478;19.378;2023-06-10T09:49:16;9.20;;;5.50;;
53525;SDS011;40551;50.478;19.378;2023-06-10T09:51:52;11.00;;;7.80;;
53525;SDS011;40551;50.478;19.378;2023-06-10T09:54:25;10.90;;;7.40;;
53525;SDS011;40551;50.478;19.378;2023-06-10T09:57:06;10.70;;;6.80;;
53525;SDS011;40551;50.478;19.378;2023-06-10T09:59:39;9.30;;;6.30;;
53525;SDS011;40551;50.478;19.378;2023-06-10T10:02:14;9.60;;;5.10;;
53525;SDS011;40551;50.478;19.378;2023-06-10T10:04:46;8.10;;;5.20;;
53525;SDS011;40551;50.478;19.378;2023-06-10T10:07:18;7.90;;;4.40;;
53525;SDS011;40551;50.478;19.378;2023-06-10T10:09:50;7.00;;;4.50;;
53525;SDS011;40551;50.478;19.378;2023-06-10T10:12:21;9.20;;;4.60;;
53525;SDS011;40551;50.478;19.378;2023-06-10T10:14:54;8.10;;;5.60;;
53525;SDS011;40551;50.478;19.378;2023-06-10T10:17:27;7.90;;;5.90;;
53525;SDS011;40551;50.478;19.378;2023-06-10T10:20:00;9.10;;;6.20;;
53525;SDS011;40551;50.478;19.378;2023-06-10T10:22:37;9.50;;;5.30;;
53525;SDS011;40551;50.478;19.378;2023-06-10T10:25:10;9.20;;;5.30;;
53525;SDS011;40551;50.478;19.378;2023-06-10T10:27:48;7.00;;;4.80;;
53525;SDS011;40551;50.478;19.378;2023-06-10T10:30:21;8.90;;;5.20;;
53525;SDS011;40551;50.478;19.378;2023-06-10T10:32:57;8.70;;;5.20;;
53525;SDS011;40551;50.478;19.378;2023-06-10T10:35:38;7.20;;;4.60;;
53525;SDS011;40551;50.478;19.378;2023-06-10T10:38:12;6.60;;;4.10;;
53525;SDS011;40551;50.478;19.378;2023-06-10T10:40:43;7.10;;;4.40;;
53525;SDS011;40551;50.478;19.378;2023-06-10T10:43:16;7.90;;;4.80;;
53525;SDS011;40551;50.478;19.378;2023-06-10T10:45:58;7.50;;;4.70;;
53525;SDS011;40551;50.478;19.378;2023-06-10T10:48:37;8.10;;;4.50;;
53525;SDS011;40551;50.478;19.378;2023-06-10T10:51:10;10.80;;;4.70;;
53525;SDS011;40551;50.478;19.378;2023-06-10T10:53:45;7.90;;;4.80;;
53525;SDS011;40551;50.478;19.378;2023-06-10T11:02:34;9.20;;;5.10;;
53525;SDS011;40551;50.478;19.378;2023-06-10T11:05:09;8.20;;;5.70;;
53525;SDS011;40551;50.478;19.378;2023-06-10T11:07:52;10.00;;;6.80;;
53525;SDS011;40551;50.478;19.378;2023-06-10T11:10:30;8.60;;;5.50;;
53525;SDS011;40551;50.478;19.378;2023-06-10T11:13:06;9.60;;;6.10;;
53525;SDS011;40551;50.478;19.378;2023-06-10T11:15:44;8.40;;;5.60;;
53525;SDS011;40551;50.478;19.378;2023-06-10T11:18:21;8.00;;;5.80;;
53525;SDS011;40551;50.478;19.378;2023-06-10T11:20:56;8.40;;;6.10;;
53525;SDS011;40551;50.478;19.378;2023-06-10T11:23:41;8.50;;;5.70;;
53525;SDS011;40551;50.478;19.378;2023-06-10T11:26:17;8.00;;;5.30;;
53525;SDS011;40551;50.478;19.378;2023-06-10T11:29:04;9.20;;;5.40;;
53525;SDS011;40551;50.478;19.378;2023-06-10T11:31:45;11.30;;;5.70;;
53525;SDS011;40551;50.478;19.378;2023-06-10T11:34:24;8.00;;;5.30;;
53525;SDS011;40551;50.478;19.378;2023-06-10T11:36:56;9.00;;;5.50;;
53525;SDS011;40551;50.478;19.378;2023-06-10T11:39:29;7.50;;;4.90;;
53525;SDS011;40551;50.478;19.378;2023-06-10T11:42:00;8.60;;;5.70;;
53525;SDS011;40551;50.478;19.378;2023-06-10T11:44:32;7.30;;;4.90;;
53525;SDS011;40551;50.478;19.378;2023-06-10T11:47:07;8.40;;;5.70;;
53525;SDS011;40551;50.478;19.378;2023-06-10T11:49:40;11.50;;;6.90;;
53525;SDS011;40551;50.478;19.378;2023-06-10T11:52:15;8.70;;;6.40;;
53525;SDS011;40551;50.478;19.378;2023-06-10T11:54:54;9.30;;;7.00;;
53525;SDS011;40551;50.478;19.378;2023-06-10T11:57:26;9.90;;;7.00;;
53525;SDS011;40551;50.478;19.378;2023-06-10T11:59:58;8.70;;;6.10;;
53525;SDS011;40551;50.478;19.378;2023-06-10T12:02:39;12.30;;;6.10;;
53525;SDS011;40551;50.478;19.378;2023-06-10T12:05:12;10.70;;;5.80;;
53525;SDS011;40551;50.478;19.378;2023-06-10T12:07:44;12.70;;;5.50;;
53525;SDS011;40551;50.478;19.378;2023-06-10T12:10:16;10.10;;;6.40;;
53525;SDS011;40551;50.478;19.378;2023-06-10T12:12:55;8.20;;;5.90;;
53525;SDS011;40551;50.478;19.378;2023-06-10T12:15:27;8.50;;;6.00;;
53525;SDS011;40551;50.478;19.378;2023-06-10T12:17:59;7.80;;;5.70;;
53525;SDS011;40551;50.478;19.378;2023-06-10T12:20:31;8.30;;;6.10;;
53525;SDS011;40551;50.478;19.378;2023-06-10T12:23:09;8.50;;;5.60;;
53525;SDS011;40551;50.478;19.378;2023-06-10T12:25:47;11.90;;;5.60;;
53525;SDS011;40551;50.478;19.378;2023-06-10T12:28:22;9.20;;;6.20;;
53525;SDS011;40551;50.478;19.378;2023-06-10T12:31:07;7.70;;;5.20;;
53525;SDS011;40551;50.478;19.378;2023-06-10T12:33:38;9.30;;;5.70;;
53525;SDS011;40551;50.478;19.378;2023-06-10T12:36:16;8.60;;;6.30;;
53525;SDS011;40551;50.478;19.378;2023-06-10T12:38:49;8.60;;;6.60;;
53525;SDS011;40551;50.478;19.378;2023-06-10T12:41:22;11.10;;;5.70;;
53525;SDS011;40551;50.478;19.378;2023-06-10T12:43:54;10.50;;;6.10;;
53525;SDS011;40551;50.478;19.378;2023-06-10T12:46:27;8.60;;;5.60;;
53525;SDS011;40551;50.478;19.378;2023-06-10T12:49:07;9.80;;;5.70;;
53525;SDS011;40551;50.478;19.378;2023-06-10T12:54:18;8.20;;;5.00;;
53525;SDS011;40551;50.478;19.378;2023-06-10T12:56:50;7.90;;;5.10;;
53525;SDS011;40551;50.478;19.378;2023-06-10T12:59:21;7.50;;;5.70;;
53525;SDS011;40551;50.478;19.378;2023-06-10T13:01:54;7.10;;;5.00;;
53525;SDS011;40551;50.478;19.378;2023-06-10T13:04:25;8.90;;;6.10;;
53525;SDS011;40551;50.478;19.378;2023-06-10T13:06:57;8.40;;;5.70;;
53525;SDS011;40551;50.478;19.378;2023-06-10T13:09:29;8.50;;;5.30;;
53525;SDS011;40551;50.478;19.378;2023-06-10T13:12:01;10.20;;;6.10;;
53525;SDS011;40551;50.478;19.378;2023-06-10T13:14:34;9.00;;;5.60;;
53525;SDS011;40551;50.478;19.378;2023-06-10T13:17:06;7.80;;;5.30;;
53525;SDS011;40551;50.478;19.378;2023-06-10T13:19:38;7.40;;;5.50;;
53525;SDS011;40551;50.478;19.378;2023-06-10T13:22:09;7.20;;;5.10;;
53525;SDS011;40551;50.478;19.378;2023-06-10T13:24:41;8.10;;;5.30;;
53525;SDS011;40551;50.478;19.378;2023-06-10T13:27:13;7.50;;;5.00;;
53525;SDS011;40551;50.478;19.378;2023-06-10T13:29:44;7.60;;;4.30;;
53525;SDS011;40551;50.478;19.378;2023-06-10T13:32:16;10.60;;;4.40;;
53525;SDS011;40551;50.478;19.378;2023-06-10T13:34:47;8.10;;;4.40;;
53525;SDS011;40551;50.478;19.378;2023-06-10T13:37:19;12.40;;;5.80;;
53525;SDS011;40551;50.478;19.378;2023-06-10T13:39:50;14.40;;;5.90;;
53525;SDS011;40551;50.478;19.378;2023-06-10T13:42:22;12.40;;;6.30;;
53525;SDS011;40551;50.478;19.378;2023-06-10T13:44:55;9.60;;;6.40;;
53525;SDS011;40551;50.478;19.378;2023-06-10T13:47:27;11.20;;;5.90;;
53525;SDS011;40551;50.478;19.378;2023-06-10T13:49:58;10.10;;;6.20;;
53525;SDS011;40551;50.478;19.378;2023-06-10T13:52:32;16.90;;;6.20;;
53525;SDS011;40551;50.478;19.378;2023-06-10T13:55:04;15.20;;;6.70;;
53525;SDS011;40551;50.478;19.378;2023-06-10T13:57:38;11.20;;;6.30;;
53525;SDS011;40551;50.478;19.378;2023-06-10T14:00:10;10.70;;;6.30;;
53525;SDS011;40551;50.478;19.378;2023-06-10T14:02:43;11.90;;;6.60;;
53525;SDS011;40551;50.478;19.378;2023-06-10T14:05:16;12.30;;;6.20;;
53525;SDS011;40551;50.478;19.378;2023-06-10T14:07:48;11.90;;;6.50;;
53525;SDS011;40551;50.478;19.378;2023-06-10T14:10:19;10.10;;;6.80;;
53525;SDS011;40551;50.478;19.378;2023-06-10T14:12:51;14.30;;;6.90;;
53525;SDS011;40551;50.478;19.378;2023-06-10T14:15:22;11.50;;;6.90;;
53525;SDS011;40551;50.478;19.378;2023-06-10T14:17:54;8.80;;;6.50;;
53525;SDS011;40551;50.478;19.378;2023-06-10T14:20:26;11.30;;;7.10;;
53525;SDS011;40551;50.478;19.378;2023-06-10T14:23:00;9.00;;;7.10;;
53525;SDS011;40551;50.478;19.378;2023-06-10T14:25:31;11.60;;;8.30;;
53525;SDS011;40551;50.478;19.378;2023-06-10T14:28:03;11.10;;;8.40;;
53525;SDS011;40551;50.478;19.378;2023-06-10T14:30:35;10.50;;;7.20;;
53525;SDS011;40551;50.478;19.378;2023-06-10T14:33:07;10.90;;;8.30;;
53525;SDS011;40551;50.478;19.378;2023-06-10T14:35:39;10.30;;;7.90;;
53525;SDS011;40551;50.478;19.378;2023-06-10T14:38:11;12.00;;;8.00;;
53525;SDS011;40551;50.478;19.378;2023-06-10T14:40:43;11.50;;;8.40;;
53525;SDS011;40551;50.478;19.378;2023-06-10T14:43:14;11.40;;;9.40;;
53525;SDS011;40551;50.478;19.378;2023-06-10T14:45:46;12.70;;;8.70;;
53525;SDS011;40551;50.478;19.378;2023-06-10T14:48:20;9.40;;;8.30;;
53525;SDS011;40551;50.478;19.378;2023-06-10T14:50:51;12.10;;;8.40;;
53525;SDS011;40551;50.478;19.378;2023-06-10T14:53:24;10.60;;;8.40;;
53525;SDS011;40551;50.478;19.378;2023-06-10T14:55:56;10.60;;;9.20;;
53525;SDS011;40551;50.478;19.378;2023-06-10T14:58:28;11.40;;;8.30;;
53525;SDS011;40551;50.478;19.378;2023-06-10T15:00:59;12.70;;;9.00;;
53525;SDS011;40551;50.478;19.378;2023-06-10T15:03:31;10.60;;;9.10;;